Stephen M. White — WCU6542 — position and weather

sailwx.info

Track history (hours):
 
Tides and Currents Weather Stations Pressure Air Temp Water Temp Dewpoint Dewpoint Depression Visibility Wind Speed Wind Dir Waves Ship Positions

Stephen M. White

Owner: LOS ANGELES, CITY OF, SAN PEDRO, CA. More information available from US FCC via Universal Licensing System and Coast Guard Vessel Documentation Center.

Last reported at 2016-Jul-23 14:33 UTC. Time now 2016-Jul-23 15:06 UTC.
Position N 33°42' W 118°15'.

Length 13 m.

Type: Other ship. MMSI: 367049470.

Date/timePositionNaut miles runAvg speedWind from/ knotsBaromVisibWave heightAir tempDewpointWater temp
2016-Jul-23 14:33N 33°42' W 118°15'1 0.7
2016-Jul-23 13:33N 33°43' W 118°15'1 0.7
2016-Jul-23 12:30N 33°42' W 118°15'2 1.6
2016-Jul-23 11:33N 33°43' W 118°16'0 0.0
2016-Jul-23 10:20N 33°43' W 118°16'0 0.0
2016-Jul-23 09:33N 33°43' W 118°16'0 0.0
2016-Jul-23 08:33N 33°43' W 118°16'0 0.0
2016-Jul-23 07:11N 33°43' W 118°16'0 0.0
2016-Jul-23 06:33N 33°43' W 118°16'0 0.0
2016-Jul-23 04:08N 33°43' W 118°16'0 0.0
2016-Jul-23 03:33N 33°43' W 118°16'1 1.2
2016-Jul-23 02:33N 33°43' W 118°15'0 0.1
2016-Jul-23 01:33N 33°43' W 118°15'1 1.3
2016-Jul-23 00:33N 33°43' W 118°16'0 0.0
2016-Jul-22 23:33N 33°43' W 118°16'0 0.0
2016-Jul-22 22:33N 33°43' W 118°16'0 0.0
2016-Jul-22 21:33N 33°43' W 118°16'4 4.2
2016-Jul-22 20:32N 33°40' W 118°14'4 4.3
2016-Jul-22 19:33N 33°43' W 118°16'0 0.0
2016-Jul-22 18:32N 33°43' W 118°16'0 0.0
2016-Jul-22 17:33N 33°43' W 118°16'0 0.0
2016-Jul-22 16:33N 33°43' W 118°16'0 0.0
2016-Jul-22 15:33N 33°43' W 118°16'0 0.0
2016-Jul-22 14:33N 33°43' W 118°16'0 0.0
2016-Jul-22 13:33N 33°43' W 118°16'0 0.0
2016-Jul-22 12:33N 33°43' W 118°16'0 0.0
2016-Jul-22 11:28N 33°43' W 118°16'0 0.3
2016-Jul-22 10:31N 33°43' W 118°16'0 0.3
2016-Jul-22 09:32N 33°43' W 118°16'0 0.0
2016-Jul-22 08:33N 33°43' W 118°16'0 0.0
2016-Jul-22 07:34N 33°43' W 118°16'0 0.0
2016-Jul-22 05:33N 33°43' W 118°16'0 0.0
2016-Jul-22 04:22N 33°43' W 118°16'0 0.0
2016-Jul-22 03:33N 33°43' W 118°16'0 0.3
2016-Jul-22 02:33N 33°43' W 118°16'0 0.3
2016-Jul-22 01:34N 33°43' W 118°16'0 0.0
2016-Jul-22 00:34N 33°43' W 118°16'0 0.0
2016-Jul-21 23:24N 33°43' W 118°16'0 0.0
2016-Jul-21 22:33N 33°43' W 118°16'0 0.0
2016-Jul-21 21:33N 33°43' W 118°16'0 0.0
2016-Jul-21 20:33N 33°43' W 118°16'0 0.0
2016-Jul-21 19:33N 33°43' W 118°16'0 0.0
2016-Jul-21 18:33N 33°43' W 118°16'0 0.0
2016-Jul-21 17:33N 33°43' W 118°16'0 0.0
2016-Jul-21 16:33N 33°43' W 118°16'0 0.0
2016-Jul-21 15:33N 33°43' W 118°16'1 1.1
2016-Jul-21 14:33N 33°43' W 118°15'1 1.1
2016-Jul-21 13:33N 33°43' W 118°16'3 3.1
2016-Jul-21 12:33N 33°41' W 118°14'3 2.9
2016-Jul-21 11:33N 33°43' W 118°16'0 0.2
2016-Jul-21 10:33N 33°43' W 118°16'0 0.0
2016-Jul-21 09:33N 33°43' W 118°16'0 0.0
2016-Jul-21 08:33N 33°43' W 118°16'0 0.0
2016-Jul-21 07:33N 33°43' W 118°16'0 0.0
2016-Jul-21 06:33N 33°43' W 118°16'0 0.0
2016-Jul-21 05:33N 33°43' W 118°16'0 0.0
2016-Jul-21 04:33N 33°43' W 118°16'0 0.0
2016-Jul-21 03:33N 33°43' W 118°16'0 0.0
2016-Jul-21 02:33N 33°43' W 118°16'0 0.0
2016-Jul-21 01:33N 33°43' W 118°16'2 2.1
2016-Jul-21 00:33N 33°42' W 118°15'2 2.1
2016-Jul-20 23:33N 33°43' W 118°16'2 1.8
2016-Jul-20 22:32N 33°42' W 118°15'1 0.5
2016-Jul-20 21:33N 33°42' W 118°15'1 1.3
2016-Jul-20 20:33N 33°41' W 118°15'3 2.6
2016-Jul-20 19:33N 33°43' W 118°16'0 0.0
2016-Jul-20 18:33N 33°43' W 118°16'0 0.0
2016-Jul-20 17:29N 33°43' W 118°16'0 0.0
2016-Jul-20 16:33N 33°43' W 118°16'0 0.0
2016-Jul-20 15:32N 33°43' W 118°16'0 0.0
2016-Jul-20 14:32N 33°43' W 118°16'1 0.8
2016-Jul-20 13:32N 33°43' W 118°15'0 0.1
2016-Jul-20 12:33N 33°43' W 118°16'1 0.7
2016-Jul-20 11:32N 33°43' W 118°16'0 0.0
2016-Jul-20 10:33N 33°43' W 118°16'0 0.0
2016-Jul-20 09:33N 33°43' W 118°16'0 0.0
2016-Jul-20 08:32N 33°43' W 118°16'0 0.0
2016-Jul-20 07:33N 33°43' W 118°16'0 0.0
2016-Jul-20 06:34N 33°43' W 118°16'0 0.0
2016-Jul-20 05:33N 33°43' W 118°16'0 0.0
2016-Jul-20 04:33N 33°43' W 118°16'3 2.8
2016-Jul-20 03:33N 33°42' W 118°13'3 2.8
2016-Jul-20 02:33N 33°43' W 118°16'0 0.0
2016-Jul-20 01:33N 33°43' W 118°16'0 0.0
2016-Jul-20 00:33N 33°43' W 118°16'0 0.0
2016-Jul-19 23:33N 33°43' W 118°16'0 0.4
2016-Jul-19 22:34N 33°43' W 118°16'0 0.5
2016-Jul-19 21:33N 33°43' W 118°16'2 1.9
2016-Jul-19 20:34N 33°42' W 118°15'2 1.8
2016-Jul-19 19:29N 33°43' W 118°16'0 0.0
2016-Jul-19 18:33N 33°43' W 118°16'0 0.0
2016-Jul-19 17:22N 33°43' W 118°16'0 0.0
2016-Jul-19 14:31N 33°43' W 118°16'0 0.0
2016-Jul-19 13:22N 33°43' W 118°16'0 0.1
2016-Jul-19 12:33N 33°43' W 118°16'0 0.1
2016-Jul-19 11:27N 33°43' W 118°16'0 0.0
2016-Jul-19 10:07N 33°43' W 118°16'0 0.3
2016-Jul-19 09:33N 33°43' W 118°16'0 0.1
2016-Jul-19 07:22N 33°43' W 118°16'0 0.0
2016-Jul-19 04:33N 33°43' W 118°16'0 0.0
2016-Jul-19 03:22N 33°43' W 118°16'0 0.0
2016-Jul-19 02:33N 33°43' W 118°16'0 0.0
2016-Jul-19 01:33N 33°43' W 118°16'0 0.0
2016-Jul-19 00:33N 33°43' W 118°16'0 0.0
2016-Jul-18 23:32N 33°43' W 118°16'0 0.0
2016-Jul-18 22:33N 33°43' W 118°16'0 0.0
2016-Jul-18 21:33N 33°43' W 118°16'0 0.0
2016-Jul-18 20:32N 33°43' W 118°16'0 0.0
2016-Jul-18 19:28N 33°43' W 118°16'1 0.1
2016-Jul-18 14:21N 33°44' W 118°17'1 0.5
2016-Jul-18 13:06N 33°43' W 118°16'2 1.8
2016-Jul-18 12:07N 33°42' W 118°15'1 0.8
2016-Jul-18 11:19N 33°43' W 118°15'1 1.1
2016-Jul-18 10:14N 33°43' W 118°16'2 2.0
2016-Jul-18 09:28N 33°42' W 118°15'2 0.8
2016-Jul-18 07:33N 33°43' W 118°16'0 0.0
2016-Jul-18 04:10N 33°43' W 118°16'1 2.2
2016-Jul-18 03:30N 33°42' W 118°15'1 1.5
2016-Jul-18 02:33N 33°43' W 118°16'0 0.0
2016-Jul-18 01:31N 33°43' W 118°16'1 0.3
2016-Jul-17 23:16N 33°44' W 118°16'1 0.9
2016-Jul-17 22:30N 33°43' W 118°16'0 0.0
2016-Jul-17 21:33N 33°43' W 118°16'0 0.0
2016-Jul-17 13:12N 33°43' W 118°16'0 0.0
2016-Jul-17 12:33N 33°43' W 118°16'0 0.0
2016-Jul-17 11:26N 33°43' W 118°16'0 0.0
2016-Jul-17 10:32N 33°43' W 118°16'0 0.0
2016-Jul-17 06:30N 33°43' W 118°16'0 0.0
2016-Jul-17 04:24N 33°43' W 118°16'1 1.7
2016-Jul-17 03:33N 33°42' W 118°15'1 1.1
2016-Jul-17 02:16N 33°43' W 118°16'0 0.0
2016-Jul-17 01:33N 33°43' W 118°16'0 0.0
2016-Jul-17 00:33N 33°43' W 118°16'0 0.0
2016-Jul-16 23:33N 33°43' W 118°16'0 0.0
2016-Jul-16 22:32N 33°43' W 118°16'0 0.0
2016-Jul-16 17:25N 33°43' W 118°16'0 0.0
2016-Jul-16 13:24N 33°43' W 118°16'0 0.0
2016-Jul-16 12:33N 33°43' W 118°16'0 0.0
2016-Jul-16 11:31N 33°43' W 118°16'0 0.0
2016-Jul-16 10:11N 33°43' W 118°16'0 0.0
2016-Jul-16 08:23N 33°43' W 118°16'0 0.0
2016-Jul-16 07:33N 33°43' W 118°16'0 0.0
2016-Jul-16 04:32N 33°43' W 118°16'0 0.0
2016-Jul-16 03:32N 33°43' W 118°16'0 0.0
2016-Jul-16 02:33N 33°43' W 118°16'0 0.0
2016-Jul-16 01:31N 33°43' W 118°16'0 0.0
2016-Jul-16 00:31N 33°43' W 118°16'0 0.0
2016-Jul-15 23:33N 33°43' W 118°16'2 1.2
2016-Jul-15 22:07N 33°42' W 118°15'2 2.9
2016-Jul-15 21:31N 33°43' W 118°16'0 0.0
2016-Jul-15 18:09N 33°43' W 118°16'0 0.0
2016-Jul-15 17:10N 33°43' W 118°16'0 0.0
2016-Jul-15 16:31N 33°43' W 118°16'1 0.5
2016-Jul-15 15:15N 33°44' W 118°17'1 0.9
2016-Jul-15 14:33N 33°43' W 118°16'0 0.0
2016-Jul-15 12:14N 33°43' W 118°16'1 1.0
2016-Jul-15 11:33N 33°43' W 118°16'1 0.7
2016-Jul-15 10:33N 33°43' W 118°16'0 0.0
2016-Jul-15 09:25N 33°43' W 118°16'0 0.0
2016-Jul-15 07:27N 33°43' W 118°16'0 0.0
2016-Jul-15 06:33N 33°43' W 118°16'0 0.0
2016-Jul-15 05:26N 33°43' W 118°16'0 0.0
2016-Jul-15 04:34N 33°43' W 118°16'0 0.0
2016-Jul-15 03:33N 33°43' W 118°16'0 0.0
2016-Jul-15 02:32N 33°43' W 118°16'1 1.0
2016-Jul-15 01:33N 33°43' W 118°15'1 0.9
2016-Jul-15 00:32N 33°43' W 118°16'0 0.0
2016-Jul-14 23:34N 33°43' W 118°16'0 0.0
2016-Jul-14 22:32N 33°43' W 118°16'0 0.0
2016-Jul-14 21:33N 33°43' W 118°16'0 0.0
2016-Jul-14 20:33N 33°43' W 118°16'0 0.0
2016-Jul-14 18:21N 33°43' W 118°16'2 1.8
2016-Jul-14 17:11N 33°43' W 118°14'2 3.1
2016-Jul-14 16:30N 33°43' W 118°16'0 0.0
2016-Jul-14 15:33N 33°43' W 118°16'3 0.2
2016-Jul-14 01:33N 33°46' W 118°16'0 0.0
2016-Jul-14 00:22N 33°46' W 118°16'0 0.0
2016-Jul-13 23:14N 33°46' W 118°16'  
Track history (hours):
 
Tides and Currents Weather Stations Pressure Air Temp Water Temp Dewpoint Dewpoint Depression Visibility Wind Speed Wind Dir Waves Ship Positions

Stephen M. White

Owner: LOS ANGELES, CITY OF, SAN PEDRO, CA. More information available from US FCC via Universal Licensing System and Coast Guard Vessel Documentation Center.

Last reported at 2016-Jul-23 14:33 UTC. Time now 2016-Jul-23 15:06 UTC.
Position N 33°42' W 118°15'.

Length 13 m.

Type: Other ship. MMSI: 367049470.

Date/timePositionNaut miles runAvg speedWind from/ knotsBaromVisibWave heightAir tempDewpointWater temp
2016-Jul-23 14:33N 33°42' W 118°15'1 0.7
2016-Jul-23 13:33N 33°43' W 118°15'1 0.7
2016-Jul-23 12:30N 33°42' W 118°15'2 1.6
2016-Jul-23 11:33N 33°43' W 118°16'0 0.0
2016-Jul-23 10:20N 33°43' W 118°16'0 0.0
2016-Jul-23 09:33N 33°43' W 118°16'0 0.0
2016-Jul-23 08:33N 33°43' W 118°16'0 0.0
2016-Jul-23 07:11N 33°43' W 118°16'0 0.0
2016-Jul-23 06:33N 33°43' W 118°16'0 0.0
2016-Jul-23 04:08N 33°43' W 118°16'0 0.0
2016-Jul-23 03:33N 33°43' W 118°16'1 1.2
2016-Jul-23 02:33N 33°43' W 118°15'0 0.1
2016-Jul-23 01:33N 33°43' W 118°15'1 1.3
2016-Jul-23 00:33N 33°43' W 118°16'0 0.0
2016-Jul-22 23:33N 33°43' W 118°16'0 0.0
2016-Jul-22 22:33N 33°43' W 118°16'0 0.0
2016-Jul-22 21:33N 33°43' W 118°16'4 4.2
2016-Jul-22 20:32N 33°40' W 118°14'4 4.3
2016-Jul-22 19:33N 33°43' W 118°16'0 0.0
2016-Jul-22 18:32N 33°43' W 118°16'0 0.0
2016-Jul-22 17:33N 33°43' W 118°16'0 0.0
2016-Jul-22 16:33N 33°43' W 118°16'0 0.0
2016-Jul-22 15:33N 33°43' W 118°16'0 0.0
2016-Jul-22 14:33N 33°43' W 118°16'0 0.0
2016-Jul-22 13:33N 33°43' W 118°16'0 0.0
2016-Jul-22 12:33N 33°43' W 118°16'0 0.0
2016-Jul-22 11:28N 33°43' W 118°16'0 0.3
2016-Jul-22 10:31N 33°43' W 118°16'0 0.3
2016-Jul-22 09:32N 33°43' W 118°16'0 0.0
2016-Jul-22 08:33N 33°43' W 118°16'0 0.0
2016-Jul-22 07:34N 33°43' W 118°16'0 0.0
2016-Jul-22 05:33N 33°43' W 118°16'0 0.0
2016-Jul-22 04:22N 33°43' W 118°16'0 0.0
2016-Jul-22 03:33N 33°43' W 118°16'0 0.3
2016-Jul-22 02:33N 33°43' W 118°16'0 0.3
2016-Jul-22 01:34N 33°43' W 118°16'0 0.0
2016-Jul-22 00:34N 33°43' W 118°16'0 0.0
2016-Jul-21 23:24N 33°43' W 118°16'0 0.0
2016-Jul-21 22:33N 33°43' W 118°16'0 0.0
2016-Jul-21 21:33N 33°43' W 118°16'0 0.0
2016-Jul-21 20:33N 33°43' W 118°16'0 0.0
2016-Jul-21 19:33N 33°43' W 118°16'0 0.0
2016-Jul-21 18:33N 33°43' W 118°16'0 0.0
2016-Jul-21 17:33N 33°43' W 118°16'0 0.0
2016-Jul-21 16:33N 33°43' W 118°16'0 0.0
2016-Jul-21 15:33N 33°43' W 118°16'1 1.1
2016-Jul-21 14:33N 33°43' W 118°15'1 1.1
2016-Jul-21 13:33N 33°43' W 118°16'3 3.1
2016-Jul-21 12:33N 33°41' W 118°14'3 2.9
2016-Jul-21 11:33N 33°43' W 118°16'0 0.2
2016-Jul-21 10:33N 33°43' W 118°16'0 0.0
2016-Jul-21 09:33N 33°43' W 118°16'0 0.0
2016-Jul-21 08:33N 33°43' W 118°16'0 0.0
2016-Jul-21 07:33N 33°43' W 118°16'0 0.0
2016-Jul-21 06:33N 33°43' W 118°16'0 0.0
2016-Jul-21 05:33N 33°43' W 118°16'0 0.0
2016-Jul-21 04:33N 33°43' W 118°16'0 0.0
2016-Jul-21 03:33N 33°43' W 118°16'0 0.0
2016-Jul-21 02:33N 33°43' W 118°16'0 0.0
2016-Jul-21 01:33N 33°43' W 118°16'2 2.1
2016-Jul-21 00:33N 33°42' W 118°15'2 2.1
2016-Jul-20 23:33N 33°43' W 118°16'2 1.8
2016-Jul-20 22:32N 33°42' W 118°15'1 0.5
2016-Jul-20 21:33N 33°42' W 118°15'1 1.3
2016-Jul-20 20:33N 33°41' W 118°15'3 2.6
2016-Jul-20 19:33N 33°43' W 118°16'0 0.0
2016-Jul-20 18:33N 33°43' W 118°16'0 0.0
2016-Jul-20 17:29N 33°43' W 118°16'0 0.0
2016-Jul-20 16:33N 33°43' W 118°16'0 0.0
2016-Jul-20 15:32N 33°43' W 118°16'0 0.0
2016-Jul-20 14:32N 33°43' W 118°16'1 0.8
2016-Jul-20 13:32N 33°43' W 118°15'0 0.1
2016-Jul-20 12:33N 33°43' W 118°16'1 0.7
2016-Jul-20 11:32N 33°43' W 118°16'0 0.0
2016-Jul-20 10:33N 33°43' W 118°16'0 0.0
2016-Jul-20 09:33N 33°43' W 118°16'0 0.0
2016-Jul-20 08:32N 33°43' W 118°16'0 0.0
2016-Jul-20 07:33N 33°43' W 118°16'0 0.0
2016-Jul-20 06:34N 33°43' W 118°16'0 0.0
2016-Jul-20 05:33N 33°43' W 118°16'0 0.0
2016-Jul-20 04:33N 33°43' W 118°16'3 2.8
2016-Jul-20 03:33N 33°42' W 118°13'3 2.8
2016-Jul-20 02:33N 33°43' W 118°16'0 0.0
2016-Jul-20 01:33N 33°43' W 118°16'0 0.0
2016-Jul-20 00:33N 33°43' W 118°16'0 0.0
2016-Jul-19 23:33N 33°43' W 118°16'0 0.4
2016-Jul-19 22:34N 33°43' W 118°16'0 0.5
2016-Jul-19 21:33N 33°43' W 118°16'2 1.9
2016-Jul-19 20:34N 33°42' W 118°15'2 1.8
2016-Jul-19 19:29N 33°43' W 118°16'0 0.0
2016-Jul-19 18:33N 33°43' W 118°16'0 0.0
2016-Jul-19 17:22N 33°43' W 118°16'0 0.0
2016-Jul-19 14:31N 33°43' W 118°16'0 0.0
2016-Jul-19 13:22N 33°43' W 118°16'0 0.1
2016-Jul-19 12:33N 33°43' W 118°16'0 0.1
2016-Jul-19 11:27N 33°43' W 118°16'0 0.0
2016-Jul-19 10:07N 33°43' W 118°16'0 0.3
2016-Jul-19 09:33N 33°43' W 118°16'0 0.1
2016-Jul-19 07:22N 33°43' W 118°16'0 0.0
2016-Jul-19 04:33N 33°43' W 118°16'0 0.0
2016-Jul-19 03:22N 33°43' W 118°16'0 0.0
2016-Jul-19 02:33N 33°43' W 118°16'0 0.0
2016-Jul-19 01:33N 33°43' W 118°16'0 0.0
2016-Jul-19 00:33N 33°43' W 118°16'0 0.0
2016-Jul-18 23:32N 33°43' W 118°16'0 0.0
2016-Jul-18 22:33N 33°43' W 118°16'0 0.0
2016-Jul-18 21:33N 33°43' W 118°16'0 0.0
2016-Jul-18 20:32N 33°43' W 118°16'0 0.0
2016-Jul-18 19:28N 33°43' W 118°16'1 0.1
2016-Jul-18 14:21N 33°44' W 118°17'1 0.5
2016-Jul-18 13:06N 33°43' W 118°16'2 1.8
2016-Jul-18 12:07N 33°42' W 118°15'1 0.8
2016-Jul-18 11:19N 33°43' W 118°15'1 1.1
2016-Jul-18 10:14N 33°43' W 118°16'2 2.0
2016-Jul-18 09:28N 33°42' W 118°15'2 0.8
2016-Jul-18 07:33N 33°43' W 118°16'0 0.0
2016-Jul-18 04:10N 33°43' W 118°16'1 2.2
2016-Jul-18 03:30N 33°42' W 118°15'1 1.5
2016-Jul-18 02:33N 33°43' W 118°16'0 0.0
2016-Jul-18 01:31N 33°43' W 118°16'1 0.3
2016-Jul-17 23:16N 33°44' W 118°16'1 0.9
2016-Jul-17 22:30N 33°43' W 118°16'0 0.0
2016-Jul-17 21:33N 33°43' W 118°16'0 0.0
2016-Jul-17 13:12N 33°43' W 118°16'0 0.0
2016-Jul-17 12:33N 33°43' W 118°16'0 0.0
2016-Jul-17 11:26N 33°43' W 118°16'0 0.0
2016-Jul-17 10:32N 33°43' W 118°16'0 0.0
2016-Jul-17 06:30N 33°43' W 118°16'0 0.0
2016-Jul-17 04:24N 33°43' W 118°16'1 1.7
2016-Jul-17 03:33N 33°42' W 118°15'1 1.1
2016-Jul-17 02:16N 33°43' W 118°16'0 0.0
2016-Jul-17 01:33N 33°43' W 118°16'0 0.0
2016-Jul-17 00:33N 33°43' W 118°16'0 0.0
2016-Jul-16 23:33N 33°43' W 118°16'0 0.0
2016-Jul-16 22:32N 33°43' W 118°16'0 0.0
2016-Jul-16 17:25N 33°43' W 118°16'0 0.0
2016-Jul-16 13:24N 33°43' W 118°16'0 0.0
2016-Jul-16 12:33N 33°43' W 118°16'0 0.0
2016-Jul-16 11:31N 33°43' W 118°16'0 0.0
2016-Jul-16 10:11N 33°43' W 118°16'0 0.0
2016-Jul-16 08:23N 33°43' W 118°16'0 0.0
2016-Jul-16 07:33N 33°43' W 118°16'0 0.0
2016-Jul-16 04:32N 33°43' W 118°16'0 0.0
2016-Jul-16 03:32N 33°43' W 118°16'0 0.0
2016-Jul-16 02:33N 33°43' W 118°16'0 0.0
2016-Jul-16 01:31N 33°43' W 118°16'0 0.0
2016-Jul-16 00:31N 33°43' W 118°16'0 0.0
2016-Jul-15 23:33N 33°43' W 118°16'2 1.2
2016-Jul-15 22:07N 33°42' W 118°15'2 2.9
2016-Jul-15 21:31N 33°43' W 118°16'0 0.0
2016-Jul-15 18:09N 33°43' W 118°16'0 0.0
2016-Jul-15 17:10N 33°43' W 118°16'0 0.0
2016-Jul-15 16:31N 33°43' W 118°16'1 0.5
2016-Jul-15 15:15N 33°44' W 118°17'1 0.9
2016-Jul-15 14:33N 33°43' W 118°16'0 0.0
2016-Jul-15 12:14N 33°43' W 118°16'1 1.0
2016-Jul-15 11:33N 33°43' W 118°16'1 0.7
2016-Jul-15 10:33N 33°43' W 118°16'0 0.0
2016-Jul-15 09:25N 33°43' W 118°16'0 0.0
2016-Jul-15 07:27N 33°43' W 118°16'0 0.0
2016-Jul-15 06:33N 33°43' W 118°16'0 0.0
2016-Jul-15 05:26N 33°43' W 118°16'0 0.0
2016-Jul-15 04:34N 33°43' W 118°16'0 0.0
2016-Jul-15 03:33N 33°43' W 118°16'0 0.0
2016-Jul-15 02:32N 33°43' W 118°16'1 1.0
2016-Jul-15 01:33N 33°43' W 118°15'1 0.9
2016-Jul-15 00:32N 33°43' W 118°16'0 0.0
2016-Jul-14 23:34N 33°43' W 118°16'0 0.0
2016-Jul-14 22:32N 33°43' W 118°16'0 0.0
2016-Jul-14 21:33N 33°43' W 118°16'0 0.0
2016-Jul-14 20:33N 33°43' W 118°16'0 0.0
2016-Jul-14 18:21N 33°43' W 118°16'2 1.8
2016-Jul-14 17:11N 33°43' W 118°14'2 3.1
2016-Jul-14 16:30N 33°43' W 118°16'0 0.0
2016-Jul-14 15:33N 33°43' W 118°16'3 0.2
2016-Jul-14 01:33N 33°46' W 118°16'0 0.0
2016-Jul-14 00:22N 33°46' W 118°16'0 0.0
2016-Jul-13 23:14N 33°46' W 118°16'  

Dump ship's entire track history